sensor_id;sensor_type;location;lat;lon;timestamp;P1;durP1;ratioP1;P2;durP2;ratioP2
35488;SDS011;21602;55.670;37.578;2023-02-11T00:02:01;14.77;;;6.50;;
35488;SDS011;21602;55.670;37.578;2023-02-11T00:04:30;9.68;;;5.30;;
35488;SDS011;21602;55.670;37.578;2023-02-11T00:06:56;15.27;;;7.70;;
35488;SDS011;21602;55.670;37.578;2023-02-11T00:09:21;13.20;;;7.45;;
35488;SDS011;21602;55.670;37.578;2023-02-11T00:11:48;15.77;;;7.97;;
35488;SDS011;21602;55.670;37.578;2023-02-11T00:14:14;17.50;;;7.63;;
35488;SDS011;21602;55.670;37.578;2023-02-11T00:16:39;11.38;;;7.18;;
35488;SDS011;21602;55.670;37.578;2023-02-11T00:19:05;11.95;;;7.38;;
35488;SDS011;21602;55.670;37.578;2023-02-11T00:21:32;11.65;;;7.13;;
35488;SDS011;21602;55.670;37.578;2023-02-11T00:23:58;10.43;;;6.53;;
35488;SDS011;21602;55.670;37.578;2023-02-11T00:26:28;14.00;;;6.72;;
35488;SDS011;21602;55.670;37.578;2023-02-11T00:28:59;14.75;;;6.22;;
35488;SDS011;21602;55.670;37.578;2023-02-11T00:31:26;17.95;;;7.85;;
35488;SDS011;21602;55.670;37.578;2023-02-11T00:33:52;17.83;;;7.28;;
35488;SDS011;21602;55.670;37.578;2023-02-11T00:36:20;11.32;;;6.20;;
35488;SDS011;21602;55.670;37.578;2023-02-11T00:38:48;15.63;;;7.50;;
35488;SDS011;21602;55.670;37.578;2023-02-11T00:41:15;16.35;;;7.90;;
35488;SDS011;21602;55.670;37.578;2023-02-11T00:43:41;10.55;;;5.10;;
35488;SDS011;21602;55.670;37.578;2023-02-11T00:46:07;10.60;;;6.35;;
35488;SDS011;21602;55.670;37.578;2023-02-11T00:48:34;9.57;;;5.65;;
35488;SDS011;21602;55.670;37.578;2023-02-11T00:51:00;12.35;;;6.22;;
35488;SDS011;21602;55.670;37.578;2023-02-11T00:53:28;11.82;;;6.15;;
35488;SDS011;21602;55.670;37.578;2023-02-11T00:55:54;14.75;;;6.93;;
35488;SDS011;21602;55.670;37.578;2023-02-11T00:58:20;15.00;;;7.40;;
35488;SDS011;21602;55.670;37.578;2023-02-11T01:00:47;11.20;;;6.70;;
35488;SDS011;21602;55.670;37.578;2023-02-11T01:03:13;10.55;;;6.20;;
35488;SDS011;21602;55.670;37.578;2023-02-11T01:05:38;12.77;;;5.70;;
35488;SDS011;21602;55.670;37.578;2023-02-11T01:08:04;21.00;;;6.68;;
35488;SDS011;21602;55.670;37.578;2023-02-11T01:10:31;16.33;;;8.68;;
35488;SDS011;21602;55.670;37.578;2023-02-11T01:12:57;14.77;;;6.20;;
35488;SDS011;21602;55.670;37.578;2023-02-11T01:15:24;12.65;;;5.60;;
35488;SDS011;21602;55.670;37.578;2023-02-11T01:17:51;12.00;;;5.40;;
35488;SDS011;21602;55.670;37.578;2023-02-11T01:20:21;11.90;;;5.82;;
35488;SDS011;21602;55.670;37.578;2023-02-11T01:22:48;11.35;;;5.32;;
35488;SDS011;21602;55.670;37.578;2023-02-11T01:25:14;11.98;;;5.43;;
35488;SDS011;21602;55.670;37.578;2023-02-11T01:27:41;14.50;;;5.72;;
35488;SDS011;21602;55.670;37.578;2023-02-11T01:30:07;14.57;;;6.22;;
35488;SDS011;21602;55.670;37.578;2023-02-11T01:32:37;10.98;;;5.78;;
35488;SDS011;21602;55.670;37.578;2023-02-11T01:35:03;4.97;;;3.40;;
35488;SDS011;21602;55.670;37.578;2023-02-11T01:37:31;12.48;;;5.57;;
35488;SDS011;21602;55.670;37.578;2023-02-11T01:42:23;8.82;;;4.70;;
35488;SDS011;21602;55.670;37.578;2023-02-11T01:44:50;9.50;;;5.65;;
35488;SDS011;21602;55.670;37.578;2023-02-11T01:47:19;11.60;;;5.63;;
35488;SDS011;21602;55.670;37.578;2023-02-11T01:49:48;11.88;;;5.20;;
35488;SDS011;21602;55.670;37.578;2023-02-11T01:54:52;6.57;;;3.35;;
35488;SDS011;21602;55.670;37.578;2023-02-11T01:57:41;11.63;;;4.50;;
35488;SDS011;21602;55.670;37.578;2023-02-11T02:00:14;10.20;;;5.07;;
35488;SDS011;21602;55.670;37.578;2023-02-11T02:08:17;7.80;;;3.85;;
35488;SDS011;21602;55.670;37.578;2023-02-11T02:10:47;12.18;;;5.18;;
35488;SDS011;21602;55.670;37.578;2023-02-11T02:13:18;8.80;;;4.20;;
35488;SDS011;21602;55.670;37.578;2023-02-11T02:15:49;4.90;;;2.83;;
35488;SDS011;21602;55.670;37.578;2023-02-11T02:32:16;6.70;;;3.28;;
35488;SDS011;21602;55.670;37.578;2023-02-11T02:35:18;8.13;;;4.10;;
35488;SDS011;21602;55.670;37.578;2023-02-11T02:38:07;9.85;;;3.92;;
35488;SDS011;21602;55.670;37.578;2023-02-11T02:43:11;8.77;;;4.07;;
35488;SDS011;21602;55.670;37.578;2023-02-11T02:45:39;6.28;;;3.35;;
35488;SDS011;21602;55.670;37.578;2023-02-11T02:48:05;8.88;;;3.28;;
35488;SDS011;21602;55.670;37.578;2023-02-11T02:50:33;9.52;;;4.25;;
35488;SDS011;21602;55.670;37.578;2023-02-11T03:07:06;6.88;;;3.75;;
35488;SDS011;21602;55.670;37.578;2023-02-11T03:09:21;5.97;;;3.30;;
35488;SDS011;21602;55.670;37.578;2023-02-11T03:12:06;8.88;;;3.90;;
35488;SDS011;21602;55.670;37.578;2023-02-11T03:14:35;7.15;;;2.60;;
35488;SDS011;21602;55.670;37.578;2023-02-11T03:17:03;11.43;;;3.45;;
35488;SDS011;21602;55.670;37.578;2023-02-11T03:19:39;8.98;;;3.28;;
35488;SDS011;21602;55.670;37.578;2023-02-11T03:22:29;8.65;;;3.72;;
35488;SDS011;21602;55.670;37.578;2023-02-11T03:24:59;4.00;;;2.85;;
35488;SDS011;21602;55.670;37.578;2023-02-11T03:37:49;9.20;;;2.55;;
35488;SDS011;21602;55.670;37.578;2023-02-11T03:40:20;2.65;;;1.58;;
35488;SDS011;21602;55.670;37.578;2023-02-11T03:42:52;7.25;;;3.60;;
35488;SDS011;21602;55.670;37.578;2023-02-11T03:45:22;10.93;;;3.37;;
35488;SDS011;21602;55.670;37.578;2023-02-11T03:47:54;7.03;;;2.90;;
35488;SDS011;21602;55.670;37.578;2023-02-11T03:50:25;4.80;;;2.83;;
35488;SDS011;21602;55.670;37.578;2023-02-11T03:52:54;10.27;;;2.92;;
35488;SDS011;21602;55.670;37.578;2023-02-11T03:55:21;9.18;;;3.63;;
35488;SDS011;21602;55.670;37.578;2023-02-11T04:00:16;9.07;;;2.60;;
35488;SDS011;21602;55.670;37.578;2023-02-11T04:02:42;8.50;;;2.85;;
35488;SDS011;21602;55.670;37.578;2023-02-11T04:05:09;7.13;;;3.15;;
35488;SDS011;21602;55.670;37.578;2023-02-11T04:07:37;4.82;;;2.72;;
35488;SDS011;21602;55.670;37.578;2023-02-11T04:10:03;9.75;;;3.25;;
35488;SDS011;21602;55.670;37.578;2023-02-11T04:12:30;3.20;;;1.88;;
35488;SDS011;21602;55.670;37.578;2023-02-11T04:14:55;5.75;;;3.17;;
35488;SDS011;21602;55.670;37.578;2023-02-11T04:17:21;5.32;;;2.28;;
35488;SDS011;21602;55.670;37.578;2023-02-11T04:19:47;6.28;;;2.50;;
35488;SDS011;21602;55.670;37.578;2023-02-11T04:22:13;6.60;;;2.85;;
35488;SDS011;21602;55.670;37.578;2023-02-11T04:24:38;8.48;;;2.22;;
35488;SDS011;21602;55.670;37.578;2023-02-11T04:27:04;5.80;;;3.13;;
35488;SDS011;21602;55.670;37.578;2023-02-11T04:29:30;8.05;;;3.33;;
35488;SDS011;21602;55.670;37.578;2023-02-11T04:31:56;6.30;;;2.75;;
35488;SDS011;21602;55.670;37.578;2023-02-11T04:34:22;5.32;;;2.67;;
35488;SDS011;21602;55.670;37.578;2023-02-11T04:36:49;9.48;;;3.70;;
35488;SDS011;21602;55.670;37.578;2023-02-11T04:39:15;6.03;;;2.55;;
35488;SDS011;21602;55.670;37.578;2023-02-11T04:41:41;5.17;;;2.67;;
35488;SDS011;21602;55.670;37.578;2023-02-11T04:44:07;5.57;;;2.72;;
35488;SDS011;21602;55.670;37.578;2023-02-11T04:46:33;3.95;;;2.17;;
35488;SDS011;21602;55.670;37.578;2023-02-11T04:48:59;6.03;;;2.67;;
35488;SDS011;21602;55.670;37.578;2023-02-11T04:51:25;6.00;;;2.28;;
35488;SDS011;21602;55.670;37.578;2023-02-11T04:53:52;8.13;;;2.10;;
35488;SDS011;21602;55.670;37.578;2023-02-11T04:56:18;4.78;;;2.03;;
35488;SDS011;21602;55.670;37.578;2023-02-11T04:58:43;5.80;;;2.30;;
35488;SDS011;21602;55.670;37.578;2023-02-11T05:01:10;7.82;;;2.55;;
35488;SDS011;21602;55.670;37.578;2023-02-11T05:03:38;10.32;;;2.55;;
35488;SDS011;21602;55.670;37.578;2023-02-11T05:06:04;2.47;;;1.70;;
35488;SDS011;21602;55.670;37.578;2023-02-11T05:08:30;8.57;;;2.67;;
35488;SDS011;21602;55.670;37.578;2023-02-11T05:10:56;6.88;;;1.70;;
35488;SDS011;21602;55.670;37.578;2023-02-11T05:13:22;13.15;;;2.33;;
35488;SDS011;21602;55.670;37.578;2023-02-11T05:15:48;8.07;;;2.75;;
35488;SDS011;21602;55.670;37.578;2023-02-11T05:18:15;11.27;;;2.58;;
35488;SDS011;21602;55.670;37.578;2023-02-11T05:20:41;7.40;;;2.28;;
35488;SDS011;21602;55.670;37.578;2023-02-11T05:23:07;7.93;;;2.97;;
35488;SDS011;21602;55.670;37.578;2023-02-11T05:25:34;5.93;;;2.17;;
35488;SDS011;21602;55.670;37.578;2023-02-11T05:28:01;5.60;;;2.40;;
35488;SDS011;21602;55.670;37.578;2023-02-11T05:30:28;4.50;;;1.63;;
35488;SDS011;21602;55.670;37.578;2023-02-11T05:32:54;9.00;;;2.53;;
35488;SDS011;21602;55.670;37.578;2023-02-11T05:35:20;6.20;;;2.05;;
35488;SDS011;21602;55.670;37.578;2023-02-11T05:37:46;6.13;;;2.33;;
35488;SDS011;21602;55.670;37.578;2023-02-11T05:40:12;5.57;;;2.10;;
35488;SDS011;21602;55.670;37.578;2023-02-11T05:42:38;6.53;;;2.80;;
35488;SDS011;21602;55.670;37.578;2023-02-11T05:45:04;9.23;;;3.58;;
35488;SDS011;21602;55.670;37.578;2023-02-11T05:47:30;5.40;;;2.40;;
35488;SDS011;21602;55.670;37.578;2023-02-11T05:49:56;6.28;;;3.00;;
35488;SDS011;21602;55.670;37.578;2023-02-11T05:52:22;10.32;;;2.85;;
35488;SDS011;21602;55.670;37.578;2023-02-11T05:54:48;4.95;;;2.90;;
35488;SDS011;21602;55.670;37.578;2023-02-11T05:57:15;5.22;;;2.90;;
35488;SDS011;21602;55.670;37.578;2023-02-11T05:59:41;6.40;;;3.75;;
35488;SDS011;21602;55.670;37.578;2023-02-11T06:02:08;5.53;;;3.00;;
35488;SDS011;21602;55.670;37.578;2023-02-11T06:04:35;11.13;;;2.90;;
35488;SDS011;21602;55.670;37.578;2023-02-11T06:07:02;7.50;;;3.05;;
35488;SDS011;21602;55.670;37.578;2023-02-11T06:09:28;11.52;;;4.38;;
35488;SDS011;21602;55.670;37.578;2023-02-11T06:11:55;7.07;;;3.60;;
35488;SDS011;21602;55.670;37.578;2023-02-11T06:14:21;10.23;;;3.75;;
35488;SDS011;21602;55.670;37.578;2023-02-11T06:16:47;9.93;;;5.03;;
35488;SDS011;21602;55.670;37.578;2023-02-11T06:19:13;11.27;;;3.53;;
35488;SDS011;21602;55.670;37.578;2023-02-11T06:21:39;5.18;;;1.92;;
35488;SDS011;21602;55.670;37.578;2023-02-11T06:24:05;12.98;;;4.47;;
35488;SDS011;21602;55.670;37.578;2023-02-11T06:26:32;6.93;;;3.58;;
35488;SDS011;21602;55.670;37.578;2023-02-11T06:28:59;9.15;;;3.17;;
35488;SDS011;21602;55.670;37.578;2023-02-11T06:31:25;8.48;;;3.58;;
35488;SDS011;21602;55.670;37.578;2023-02-11T06:33:53;9.48;;;4.38;;
35488;SDS011;21602;55.670;37.578;2023-02-11T06:36:23;10.95;;;4.10;;
35488;SDS011;21602;55.670;37.578;2023-02-11T06:38:49;7.72;;;3.45;;
35488;SDS011;21602;55.670;37.578;2023-02-11T06:41:16;9.57;;;4.50;;
35488;SDS011;21602;55.670;37.578;2023-02-11T06:43:46;7.93;;;3.15;;
35488;SDS011;21602;55.670;37.578;2023-02-11T06:46:12;11.25;;;4.00;;
35488;SDS011;21602;55.670;37.578;2023-02-11T06:48:39;10.40;;;3.63;;
35488;SDS011;21602;55.670;37.578;2023-02-11T06:51:09;8.27;;;3.13;;
35488;SDS011;21602;55.670;37.578;2023-02-11T06:53:40;7.05;;;3.28;;
35488;SDS011;21602;55.670;37.578;2023-02-11T06:56:09;14.05;;;4.68;;
35488;SDS011;21602;55.670;37.578;2023-02-11T06:58:43;6.13;;;3.10;;
35488;SDS011;21602;55.670;37.578;2023-02-11T07:01:11;6.43;;;2.80;;
35488;SDS011;21602;55.670;37.578;2023-02-11T07:03:39;7.75;;;4.03;;
35488;SDS011;21602;55.670;37.578;2023-02-11T07:06:07;8.95;;;4.28;;
35488;SDS011;21602;55.670;37.578;2023-02-11T07:08:36;9.88;;;3.70;;
35488;SDS011;21602;55.670;37.578;2023-02-11T07:11:18;7.88;;;3.67;;
35488;SDS011;21602;55.670;37.578;2023-02-11T07:13:54;17.83;;;3.30;;
35488;SDS011;21602;55.670;37.578;2023-02-11T07:16:23;14.75;;;5.82;;
35488;SDS011;21602;55.670;37.578;2023-02-11T07:18:50;5.93;;;3.42;;
35488;SDS011;21602;55.670;37.578;2023-02-11T07:21:17;8.07;;;3.22;;
35488;SDS011;21602;55.670;37.578;2023-02-11T07:23:44;7.05;;;4.13;;
35488;SDS011;21602;55.670;37.578;2023-02-11T07:26:12;5.82;;;3.60;;
35488;SDS011;21602;55.670;37.578;2023-02-11T07:28:40;9.70;;;3.88;;
35488;SDS011;21602;55.670;37.578;2023-02-11T07:31:13;10.27;;;3.95;;
35488;SDS011;21602;55.670;37.578;2023-02-11T07:33:41;9.75;;;4.90;;
35488;SDS011;21602;55.670;37.578;2023-02-11T07:36:10;7.13;;;3.70;;
35488;SDS011;21602;55.670;37.578;2023-02-11T07:38:38;13.32;;;4.80;;
35488;SDS011;21602;55.670;37.578;2023-02-11T07:41:05;12.75;;;5.45;;
35488;SDS011;21602;55.670;37.578;2023-02-11T07:43:34;9.40;;;4.35;;
35488;SDS011;21602;55.670;37.578;2023-02-11T07:46:07;10.27;;;4.80;;
35488;SDS011;21602;55.670;37.578;2023-02-11T07:48:35;8.27;;;3.63;;
35488;SDS011;21602;55.670;37.578;2023-02-11T07:51:11;9.55;;;4.05;;
35488;SDS011;21602;55.670;37.578;2023-02-11T07:53:38;7.45;;;3.97;;
35488;SDS011;21602;55.670;37.578;2023-02-11T07:56:05;8.40;;;4.10;;
35488;SDS011;21602;55.670;37.578;2023-02-11T07:58:32;8.75;;;4.43;;
35488;SDS011;21602;55.670;37.578;2023-02-11T08:01:05;9.85;;;4.35;;
35488;SDS011;21602;55.670;37.578;2023-02-11T08:03:33;8.27;;;3.63;;
35488;SDS011;21602;55.670;37.578;2023-02-11T08:06:07;11.32;;;5.03;;
35488;SDS011;21602;55.670;37.578;2023-02-11T08:08:37;12.85;;;5.22;;
35488;SDS011;21602;55.670;37.578;2023-02-11T08:13:59;8.50;;;4.60;;
35488;SDS011;21602;55.670;37.578;2023-02-11T08:16:29;9.00;;;4.47;;
35488;SDS011;21602;55.670;37.578;2023-02-11T08:18:58;9.65;;;4.95;;
35488;SDS011;21602;55.670;37.578;2023-02-11T08:23:52;10.40;;;4.00;;
35488;SDS011;21602;55.670;37.578;2023-02-11T08:26:20;9.40;;;4.32;;
35488;SDS011;21602;55.670;37.578;2023-02-11T08:28:48;8.77;;;4.35;;
35488;SDS011;21602;55.670;37.578;2023-02-11T08:31:20;10.77;;;4.25;;
35488;SDS011;21602;55.670;37.578;2023-02-11T08:33:47;10.80;;;4.85;;
35488;SDS011;21602;55.670;37.578;2023-02-11T08:36:15;9.05;;;4.97;;
35488;SDS011;21602;55.670;37.578;2023-02-11T08:38:48;8.73;;;4.15;;
35488;SDS011;21602;55.670;37.578;2023-02-11T08:41:14;13.00;;;4.13;;
35488;SDS011;21602;55.670;37.578;2023-02-11T08:43:41;9.82;;;5.05;;
35488;SDS011;21602;55.670;37.578;2023-02-11T08:46:08;8.63;;;4.30;;
35488;SDS011;21602;55.670;37.578;2023-02-11T08:48:36;11.35;;;4.00;;
35488;SDS011;21602;55.670;37.578;2023-02-11T08:51:07;8.95;;;4.40;;
35488;SDS011;21602;55.670;37.578;2023-02-11T08:53:34;7.55;;;4.28;;
35488;SDS011;21602;55.670;37.578;2023-02-11T08:56:03;6.80;;;3.53;;
35488;SDS011;21602;55.670;37.578;2023-02-11T08:58:30;9.32;;;4.07;;
35488;SDS011;21602;55.670;37.578;2023-02-11T09:00:57;9.38;;;3.90;;
35488;SDS011;21602;55.670;37.578;2023-02-11T09:03:23;8.48;;;3.63;;
35488;SDS011;21602;55.670;37.578;2023-02-11T09:05:49;7.18;;;4.00;;
35488;SDS011;21602;55.670;37.578;2023-02-11T09:08:17;6.57;;;3.55;;
35488;SDS011;21602;55.670;37.578;2023-02-11T09:10:44;10.50;;;3.85;;
35488;SDS011;21602;55.670;37.578;2023-02-11T09:13:10;11.95;;;5.07;;
35488;SDS011;21602;55.670;37.578;2023-02-11T09:15:39;8.63;;;3.95;;
35488;SDS011;21602;55.670;37.578;2023-02-11T09:18:05;6.63;;;3.15;;
35488;SDS011;21602;55.670;37.578;2023-02-11T09:20:31;10.35;;;4.63;;
35488;SDS011;21602;55.670;37.578;2023-02-11T09:22:57;7.50;;;3.78;;
35488;SDS011;21602;55.670;37.578;2023-02-11T09:25:23;8.57;;;3.95;;
35488;SDS011;21602;55.670;37.578;2023-02-11T09:27:50;9.48;;;4.75;;
35488;SDS011;21602;55.670;37.578;2023-02-11T09:30:18;9.93;;;4.03;;
35488;SDS011;21602;55.670;37.578;2023-02-11T09:32:44;6.55;;;3.95;;
35488;SDS011;21602;55.670;37.578;2023-02-11T09:35:10;7.75;;;3.90;;
35488;SDS011;21602;55.670;37.578;2023-02-11T09:37:36;9.32;;;4.03;;
35488;SDS011;21602;55.670;37.578;2023-02-11T09:40:03;7.57;;;3.53;;
35488;SDS011;21602;55.670;37.578;2023-02-11T09:45:17;8.52;;;3.28;;
35488;SDS011;21602;55.670;37.578;2023-02-11T09:47:50;7.10;;;3.85;;
35488;SDS011;21602;55.670;37.578;2023-02-11T09:50:21;7.70;;;3.63;;
35488;SDS011;21602;55.670;37.578;2023-02-11T09:52:54;9.15;;;4.47;;
35488;SDS011;21602;55.670;37.578;2023-02-11T09:55:28;9.45;;;4.10;;
35488;SDS011;21602;55.670;37.578;2023-02-11T09:57:59;10.68;;;4.68;;
35488;SDS011;21602;55.670;37.578;2023-02-11T10:00:35;9.75;;;3.65;;
35488;SDS011;21602;55.670;37.578;2023-02-11T10:17:28;8.07;;;3.65;;
35488;SDS011;21602;55.670;37.578;2023-02-11T10:22:59;10.20;;;4.22;;
35488;SDS011;21602;55.670;37.578;2023-02-11T10:25:33;7.72;;;4.82;;
35488;SDS011;21602;55.670;37.578;2023-02-11T10:28:18;7.85;;;4.38;;
35488;SDS011;21602;55.670;37.578;2023-02-11T10:33:42;11.32;;;4.35;;
35488;SDS011;21602;55.670;37.578;2023-02-11T10:36:12;15.90;;;5.30;;
35488;SDS011;21602;55.670;37.578;2023-02-11T10:38:41;9.02;;;4.53;;
35488;SDS011;21602;55.670;37.578;2023-02-11T10:41:09;13.35;;;5.15;;
35488;SDS011;21602;55.670;37.578;2023-02-11T10:43:40;8.15;;;4.18;;
35488;SDS011;21602;55.670;37.578;2023-02-11T10:46:09;13.65;;;4.40;;
35488;SDS011;21602;55.670;37.578;2023-02-11T10:48:43;10.00;;;4.45;;
35488;SDS011;21602;55.670;37.578;2023-02-11T10:51:15;11.25;;;4.70;;
35488;SDS011;21602;55.670;37.578;2023-02-11T10:53:42;7.00;;;4.88;;
35488;SDS011;21602;55.670;37.578;2023-02-11T10:56:10;7.05;;;4.28;;
35488;SDS011;21602;55.670;37.578;2023-02-11T10:59:00;10.60;;;5.00;;
35488;SDS011;21602;55.670;37.578;2023-02-11T11:01:39;15.07;;;5.07;;
35488;SDS011;21602;55.670;37.578;2023-02-11T11:04:26;14.93;;;4.70;;
35488;SDS011;21602;55.670;37.578;2023-02-11T11:14:55;13.77;;;5.53;;
35488;SDS011;21602;55.670;37.578;2023-02-11T11:17:49;9.48;;;5.55;;
35488;SDS011;21602;55.670;37.578;2023-02-11T11:22:53;9.85;;;5.75;;
35488;SDS011;21602;55.670;37.578;2023-02-11T11:25:38;10.32;;;4.80;;
35488;SDS011;21602;55.670;37.578;2023-02-11T11:28:16;8.75;;;5.28;;
35488;SDS011;21602;55.670;37.578;2023-02-11T11:30:46;36.45;;;15.70;;
35488;SDS011;21602;55.670;37.578;2023-02-11T11:33:26;15.15;;;7.10;;
35488;SDS011;21602;55.670;37.578;2023-02-11T11:35:56;12.02;;;5.97;;
35488;SDS011;21602;55.670;37.578;2023-02-11T11:38:23;13.30;;;6.78;;
35488;SDS011;21602;55.670;37.578;2023-02-11T11:41:35;12.52;;;5.70;;
35488;SDS011;21602;55.670;37.578;2023-02-11T11:44:01;10.35;;;6.40;;
35488;SDS011;21602;55.670;37.578;2023-02-11T11:46:41;11.63;;;6.18;;
35488;SDS011;21602;55.670;37.578;2023-02-11T11:54:30;11.48;;;6.00;;
35488;SDS011;21602;55.670;37.578;2023-02-11T11:57:04;16.17;;;8.38;;
35488;SDS011;21602;55.670;37.578;2023-02-11T11:59:39;35.53;;;17.10;;
35488;SDS011;21602;55.670;37.578;2023-02-11T12:02:22;16.67;;;6.72;;
35488;SDS011;21602;55.670;37.578;2023-02-11T12:15:31;19.38;;;8.85;;
35488;SDS011;21602;55.670;37.578;2023-02-11T12:21:06;9.50;;;5.25;;
35488;SDS011;21602;55.670;37.578;2023-02-11T12:29:46;14.85;;;7.00;;
35488;SDS011;21602;55.670;37.578;2023-02-11T12:32:39;13.20;;;6.32;;
35488;SDS011;21602;55.670;37.578;2023-02-11T12:35:45;12.45;;;5.90;;
35488;SDS011;21602;55.670;37.578;2023-02-11T12:38:44;12.48;;;6.65;;
35488;SDS011;21602;55.670;37.578;2023-02-11T12:47:11;8.18;;;5.13;;
35488;SDS011;21602;55.670;37.578;2023-02-11T12:52:59;8.55;;;4.82;;
35488;SDS011;21602;55.670;37.578;2023-02-11T12:55:34;14.88;;;5.78;;
35488;SDS011;21602;55.670;37.578;2023-02-11T12:58:18;12.30;;;5.38;;
35488;SDS011;21602;55.670;37.578;2023-02-11T13:03:34;13.95;;;5.47;;
35488;SDS011;21602;55.670;37.578;2023-02-11T13:06:07;13.77;;;6.20;;
35488;SDS011;21602;55.670;37.578;2023-02-11T13:08:47;14.13;;;6.25;;
35488;SDS011;21602;55.670;37.578;2023-02-11T13:11:59;9.80;;;5.20;;
35488;SDS011;21602;55.670;37.578;2023-02-11T13:14:37;9.52;;;3.53;;
35488;SDS011;21602;55.670;37.578;2023-02-11T13:17:07;12.82;;;6.10;;
35488;SDS011;21602;55.670;37.578;2023-02-11T13:19:58;13.65;;;5.57;;
35488;SDS011;21602;55.670;37.578;2023-02-11T13:22:33;13.63;;;6.13;;
35488;SDS011;21602;55.670;37.578;2023-02-11T13:27:52;12.52;;;6.00;;
35488;SDS011;21602;55.670;37.578;2023-02-11T13:30:27;16.75;;;6.43;;
35488;SDS011;21602;55.670;37.578;2023-02-11T13:35:32;13.32;;;6.53;;
35488;SDS011;21602;55.670;37.578;2023-02-11T13:37:59;12.65;;;6.13;;
35488;SDS011;21602;55.670;37.578;2023-02-11T13:40:43;12.15;;;6.32;;
35488;SDS011;21602;55.670;37.578;2023-02-11T13:43:20;15.00;;;6.65;;
35488;SDS011;21602;55.670;37.578;2023-02-11T13:45:48;13.77;;;5.93;;
35488;SDS011;21602;55.670;37.578;2023-02-11T13:48:17;11.00;;;5.80;;
35488;SDS011;21602;55.670;37.578;2023-02-11T13:50:49;14.65;;;5.78;;
35488;SDS011;21602;55.670;37.578;2023-02-11T13:53:46;18.30;;;7.28;;
35488;SDS011;21602;55.670;37.578;2023-02-11T13:58:53;17.65;;;6.80;;
35488;SDS011;21602;55.670;37.578;2023-02-11T14:04:35;15.25;;;6.57;;
35488;SDS011;21602;55.670;37.578;2023-02-11T14:07:25;13.18;;;6.90;;
35488;SDS011;21602;55.670;37.578;2023-02-11T14:13:26;13.60;;;7.20;;
35488;SDS011;21602;55.670;37.578;2023-02-11T14:16:08;13.18;;;6.63;;
35488;SDS011;21602;55.670;37.578;2023-02-11T14:23:38;15.43;;;7.05;;
35488;SDS011;21602;55.670;37.578;2023-02-11T14:26:11;17.73;;;6.80;;
35488;SDS011;21602;55.670;37.578;2023-02-11T14:34:59;18.55;;;7.50;;
35488;SDS011;21602;55.670;37.578;2023-02-11T14:37:38;12.35;;;6.50;;
35488;SDS011;21602;55.670;37.578;2023-02-11T14:40:18;15.85;;;7.30;;
35488;SDS011;21602;55.670;37.578;2023-02-11T14:42:46;15.23;;;6.68;;
35488;SDS011;21602;55.670;37.578;2023-02-11T14:45:17;17.15;;;7.03;;
35488;SDS011;21602;55.670;37.578;2023-02-11T14:48:02;19.50;;;7.60;;
35488;SDS011;21602;55.670;37.578;2023-02-11T14:50:51;17.58;;;7.15;;
35488;SDS011;21602;55.670;37.578;2023-02-11T14:53:22;16.47;;;6.37;;
35488;SDS011;21602;55.670;37.578;2023-02-11T14:55:53;14.73;;;5.53;;
35488;SDS011;21602;55.670;37.578;2023-02-11T14:58:27;14.48;;;7.47;;
35488;SDS011;21602;55.670;37.578;2023-02-11T15:03:35;16.60;;;7.30;;
35488;SDS011;21602;55.670;37.578;2023-02-11T15:11:27;15.43;;;6.10;;
35488;SDS011;21602;55.670;37.578;2023-02-11T15:13:57;17.88;;;6.50;;
35488;SDS011;21602;55.670;37.578;2023-02-11T15:16:31;15.55;;;7.20;;
35488;SDS011;21602;55.670;37.578;2023-02-11T15:19:02;13.40;;;6.93;;
35488;SDS011;21602;55.670;37.578;2023-02-11T15:21:33;24.88;;;6.85;;
35488;SDS011;21602;55.670;37.578;2023-02-11T15:24:03;19.17;;;6.53;;
35488;SDS011;21602;55.670;37.578;2023-02-11T15:26:31;11.88;;;6.05;;
35488;SDS011;21602;55.670;37.578;2023-02-11T15:28:57;15.30;;;6.72;;
35488;SDS011;21602;55.670;37.578;2023-02-11T15:31:24;11.15;;;5.60;;
35488;SDS011;21602;55.670;37.578;2023-02-11T15:33:52;13.90;;;7.05;;
35488;SDS011;21602;55.670;37.578;2023-02-11T15:36:20;14.45;;;6.13;;
35488;SDS011;21602;55.670;37.578;2023-02-11T15:41:52;12.18;;;6.18;;
35488;SDS011;21602;55.670;37.578;2023-02-11T15:44:28;15.88;;;6.88;;
35488;SDS011;21602;55.670;37.578;2023-02-11T15:46:56;18.73;;;6.95;;
35488;SDS011;21602;55.670;37.578;2023-02-11T15:49:23;15.57;;;6.85;;
35488;SDS011;21602;55.670;37.578;2023-02-11T15:51:50;17.83;;;6.65;;
35488;SDS011;21602;55.670;37.578;2023-02-11T15:54:19;14.43;;;6.20;;
35488;SDS011;21602;55.670;37.578;2023-02-11T15:56:49;15.98;;;7.28;;
35488;SDS011;21602;55.670;37.578;2023-02-11T15:59:17;15.73;;;6.78;;
35488;SDS011;21602;55.670;37.578;2023-02-11T16:01:56;12.60;;;5.40;;
35488;SDS011;21602;55.670;37.578;2023-02-11T16:04:29;14.95;;;6.75;;
35488;SDS011;21602;55.670;37.578;2023-02-11T16:06:55;17.73;;;7.78;;
35488;SDS011;21602;55.670;37.578;2023-02-11T16:11:59;17.25;;;6.82;;
35488;SDS011;21602;55.670;37.578;2023-02-11T16:14:33;19.00;;;7.05;;
35488;SDS011;21602;55.670;37.578;2023-02-11T16:17:07;20.98;;;6.68;;
35488;SDS011;21602;55.670;37.578;2023-02-11T16:19:47;17.50;;;6.57;;
35488;SDS011;21602;55.670;37.578;2023-02-11T16:22:18;16.83;;;6.00;;
35488;SDS011;21602;55.670;37.578;2023-02-11T16:24:49;12.95;;;6.05;;
35488;SDS011;21602;55.670;37.578;2023-02-11T16:27:21;13.50;;;5.65;;
35488;SDS011;21602;55.670;37.578;2023-02-11T16:29:55;12.98;;;6.30;;
35488;SDS011;21602;55.670;37.578;2023-02-11T16:32:23;16.58;;;6.85;;
35488;SDS011;21602;55.670;37.578;2023-02-11T16:34:51;16.38;;;5.50;;
35488;SDS011;21602;55.670;37.578;2023-02-11T16:37:19;14.57;;;6.43;;
35488;SDS011;21602;55.670;37.578;2023-02-11T16:39:45;16.42;;;6.05;;
35488;SDS011;21602;55.670;37.578;2023-02-11T16:42:11;15.63;;;6.43;;
35488;SDS011;21602;55.670;37.578;2023-02-11T16:44:37;18.15;;;7.85;;
35488;SDS011;21602;55.670;37.578;2023-02-11T16:47:04;18.38;;;7.20;;
35488;SDS011;21602;55.670;37.578;2023-02-11T16:52:07;13.65;;;6.93;;
35488;SDS011;21602;55.670;37.578;2023-02-11T16:54:38;13.25;;;5.57;;
35488;SDS011;21602;55.670;37.578;2023-02-11T16:57:14;13.50;;;6.45;;
35488;SDS011;21602;55.670;37.578;2023-02-11T16:59:43;17.10;;;6.75;;
35488;SDS011;21602;55.670;37.578;2023-02-11T17:02:31;17.17;;;6.72;;
35488;SDS011;21602;55.670;37.578;2023-02-11T17:04:58;6.80;;;3.92;;
35488;SDS011;21602;55.670;37.578;2023-02-11T17:07:26;11.88;;;6.25;;
35488;SDS011;21602;55.670;37.578;2023-02-11T17:09:53;17.15;;;7.10;;
35488;SDS011;21602;55.670;37.578;2023-02-11T17:12:19;14.05;;;6.00;;
35488;SDS011;21602;55.670;37.578;2023-02-11T17:14:46;16.00;;;5.72;;
35488;SDS011;21602;55.670;37.578;2023-02-11T17:17:12;17.75;;;7.78;;
35488;SDS011;21602;55.670;37.578;2023-02-11T17:19:41;12.02;;;6.35;;
35488;SDS011;21602;55.670;37.578;2023-02-11T17:22:08;12.20;;;4.70;;
35488;SDS011;21602;55.670;37.578;2023-02-11T17:24:36;12.88;;;5.65;;
35488;SDS011;21602;55.670;37.578;2023-02-11T17:27:02;11.75;;;5.97;;
35488;SDS011;21602;55.670;37.578;2023-02-11T17:29:29;13.85;;;5.97;;
35488;SDS011;21602;55.670;37.578;2023-02-11T17:31:55;14.77;;;6.40;;
35488;SDS011;21602;55.670;37.578;2023-02-11T17:34:22;16.48;;;6.90;;
35488;SDS011;21602;55.670;37.578;2023-02-11T17:36:48;12.40;;;6.50;;
35488;SDS011;21602;55.670;37.578;2023-02-11T17:39:14;13.05;;;5.28;;